Time;durP1;ratioP1;P1;durP2;ratioP2;P2;SDS_P1;SDS_P2;PMS_P1;PMS_P2;Temp;Humidity;BMP_temperature;BMP_pressure;BME280_temperature;BME280_humidity;BME280_pressure;Samples;Min_cycle;Max_cycle;Signal;HPM_P1;HPM_P2
2022/10/17 00:02:00;;;;;;;0.20;0.10;;;;;;;5.47;61.43;100961.63;4985448;28;20595;-65
2022/10/17 00:04:26;;;;;;;0.10;0.10;;;;;;;5.41;61.61;100959.78;4987549;28;20066;-65
2022/10/17 00:06:52;;;;;;;0.10;0.10;;;;;;;5.37;61.63;100957.47;4986773;28;20054;-65
2022/10/17 00:09:18;;;;;;;0.10;0.10;;;;;;;5.34;61.70;100962.50;4991489;28;20052;-64
2022/10/17 00:11:44;;;;;;;0.10;0.10;;;;;;;5.32;61.85;100957.28;5005039;28;20465;-65
2022/10/17 00:14:10;;;;;;;0.10;0.10;;;;;;;5.30;61.94;100958.50;5007918;28;20533;-65
2022/10/17 00:16:37;;;;;;;0.10;0.10;;;;;;;5.36;61.61;100954.97;5008050;28;20038;-64
2022/10/17 00:19:04;;;;;;;0.10;0.10;;;;;;;5.37;61.77;100948.50;5006818;28;20050;-64
2022/10/17 00:21:30;;;;;;;0.10;0.10;;;;;;;5.40;61.56;100942.66;5005104;28;20144;-64
2022/10/17 00:23:57;;;;;;;0.10;0.10;;;;;;;5.39;61.26;100940.97;5007426;28;20042;-64
2022/10/17 00:26:23;;;;;;;0.10;0.10;;;;;;;5.39;61.52;100949.97;5006132;28;20057;-65
2022/10/17 00:28:51;;;;;;;0.10;0.10;;;;;;;5.35;61.84;100951.41;5006828;28;20440;-64
2022/10/17 00:31:19;;;;;;;0.10;0.10;;;;;;;5.33;62.16;100941.84;4996068;28;20141;-65
2022/10/17 00:33:47;;;;;;;0.10;0.10;;;;;;;5.33;62.10;100928.28;4986080;28;20457;-64
2022/10/17 00:36:17;;;;;;;0.10;0.10;;;;;;;5.33;61.96;100939.13;4985005;28;20465;-65
2022/10/17 00:38:46;;;;;;;0.10;0.10;;;;;;;5.29;61.89;100918.88;4986129;28;20527;-66
2022/10/17 00:41:15;;;;;;;0.10;0.10;;;;;;;5.27;61.76;100919.13;4990480;28;20049;-64
2022/10/17 00:43:55;;;;;;;0.10;0.10;;;;;;;5.29;61.96;100936.00;5001701;28;20408;-63
2022/10/17 00:46:23;;;;;;;0.30;0.13;;;;;;;5.30;61.85;100925.97;5022787;28;20448;-64
2022/10/17 00:48:53;;;;;;;0.10;0.10;;;;;;;5.34;61.63;100908.25;5008903;28;20523;-65
2022/10/17 00:51:25;;;;;;;0.10;0.10;;;;;;;5.21;61.66;100890.97;5006689;28;20428;-64
2022/10/17 00:53:51;;;;;;;0.10;0.10;;;;;;;5.32;61.56;100913.06;5005313;28;20041;-64
2022/10/17 00:56:18;;;;;;;0.10;0.10;;;;;;;5.31;61.66;100914.91;5004754;28;20054;-65
2022/10/17 00:58:44;;;;;;;0.10;0.10;;;;;;;5.29;61.91;100903.47;5005636;28;20424;-64
2022/10/17 01:01:10;;;;;;;0.10;0.10;;;;;;;5.28;61.77;100893.66;5007681;28;20049;-64
2022/10/17 01:03:36;;;;;;;0.35;0.10;;;;;;;5.28;61.78;100895.53;5003507;28;20065;-64
2022/10/17 01:06:04;;;;;;;0.10;0.10;;;;;;;5.21;62.02;100896.38;5004074;28;20046;-64
2022/10/17 01:08:30;;;;;;;;;;;;;;;5.22;62.19;100880.94;5006516;28;20046;-65
2022/10/17 01:11:04;;;;;;;0.47;0.10;;;;;;;5.16;62.13;100888.06;5006581;28;19926;-64
2022/10/17 01:13:38;;;;;;;0.10;0.10;;;;;;;5.11;62.49;100885.97;5001141;28;20050;-64
2022/10/17 01:16:10;;;;;;;0.10;0.10;;;;;;;5.07;62.66;100867.63;4997264;28;20089;-64
2022/10/17 01:18:47;;;;;;;0.10;0.10;;;;;;;5.07;62.49;100873.06;4982480;28;20148;-66
2022/10/17 01:21:29;;;;;;;;;;;;;;;5.06;62.70;100871.38;4983856;28;20065;-65
2022/10/17 01:24:32;;;;;;;0.10;0.10;;;;;;;5.00;62.72;100866.81;4970232;28;20419;-65
2022/10/17 01:27:16;;;;;;;0.10;0.10;;;;;;;4.94;62.92;100863.91;4985847;28;20105;-64
2022/10/17 01:29:58;;;;;;;0.10;0.10;;;;;;;4.83;63.34;100850.97;5000087;28;20070;-64
2022/10/17 01:32:33;;;;;;;0.10;0.10;;;;;;;4.87;63.17;100841.41;4985641;28;20054;-64
2022/10/17 01:35:07;;;;;;;0.10;0.10;;;;;;;4.83;63.70;100854.53;4986635;28;20464;-64
2022/10/17 01:37:43;;;;;;;0.10;0.10;;;;;;;4.77;63.70;100841.84;4992811;28;20050;-66
2022/10/17 01:40:15;;;;;;;0.10;0.10;;;;;;;4.81;63.68;100853.06;4968655;28;20050;-64
2022/10/17 01:42:50;;;;;;;0.88;0.20;;;;;;;4.80;63.70;100849.53;4984738;28;20076;-65
2022/10/17 01:45:24;;;;;;;0.10;0.10;;;;;;;4.86;63.52;100834.31;4985016;28;20513;-64
2022/10/17 01:47:54;;;;;;;0.10;0.10;;;;;;;4.83;63.78;100840.13;4967237;28;20128;-64
2022/10/17 01:50:27;;;;;;;0.10;0.10;;;;;;;4.85;63.53;100843.50;4986884;28;20046;-64
2022/10/17 01:52:58;;;;;;;0.10;0.10;;;;;;;4.83;63.67;100857.25;4985850;28;20138;-65
2022/10/17 01:55:30;;;;;;;0.10;0.10;;;;;;;4.85;63.72;100837.22;5001759;28;20054;-64
2022/10/17 01:58:00;;;;;;;0.10;0.10;;;;;;;4.86;63.58;100828.06;4986251;28;20104;-64
2022/10/17 02:00:28;;;;;;;0.10;0.10;;;;;;;4.84;63.75;100836.41;4982870;28;20101;-65
2022/10/17 02:02:59;;;;;;;0.10;0.10;;;;;;;4.81;64.05;100829.53;4963765;28;20050;-65
2022/10/17 02:05:30;;;;;;;0.10;0.10;;;;;;;4.79;64.13;100828.91;4985194;28;20061;-65
2022/10/17 02:07:56;;;;;;;0.10;0.10;;;;;;;4.77;63.99;100832.88;4984009;28;20054;-65
2022/10/17 02:10:33;;;;;;;0.10;0.10;;;;;;;4.79;64.05;100837.03;4983063;28;20061;-63
2022/10/17 02:13:09;;;;;;;0.10;0.10;;;;;;;4.77;64.10;100819.31;4982945;28;20063;-63
2022/10/17 02:16:02;;;;;;;0.03;0.03;;;;;;;4.78;63.99;100820.97;5022249;28;20153;-65
2022/10/17 02:19:01;;;;;;;0.28;0.10;;;;;;;4.80;64.12;100825.16;4991207;28;20403;-60
2022/10/17 02:21:52;;;;;;;0.10;0.10;;;;;;;4.77;64.00;100824.72;4968572;28;20053;-61
2022/10/17 02:24:27;;;;;;;0.15;0.15;;;;;;;4.68;64.38;100822.25;4981940;28;20589;-61
2022/10/17 02:27:02;;;;;;;0.10;0.10;;;;;;;4.77;64.29;100830.16;4980856;28;20128;-63
2022/10/17 02:29:34;;;;;;;0.10;0.10;;;;;;;4.79;64.12;100815.38;4985652;28;20054;-62
2022/10/17 02:32:05;;;;;;;0.03;0.03;;;;;;;4.79;64.28;100822.66;4983152;28;20046;-62
2022/10/17 02:34:37;;;;;;;0.47;0.10;;;;;;;4.80;64.27;100810.75;4984069;28;20050;-62
2022/10/17 02:37:07;;;;;;;0.10;0.10;;;;;;;4.77;64.37;100812.03;4967194;28;20084;-63
2022/10/17 02:39:35;;;;;;;0.10;0.10;;;;;;;4.77;64.39;100808.47;4983087;28;20054;-62
2022/10/17 02:42:06;;;;;;;0.10;0.10;;;;;;;4.76;64.15;100813.09;4982200;28;20561;-63
2022/10/17 02:44:33;;;;;;;0.60;0.13;;;;;;;4.77;64.51;100808.47;4984985;28;20145;-62
2022/10/17 02:47:04;;;;;;;0.10;0.10;;;;;;;4.77;64.48;100819.31;4983563;28;20050;-63
2022/10/17 02:49:38;;;;;;;0.10;0.10;;;;;;;4.80;64.42;100802.63;4983651;28;20048;-62
2022/10/17 02:52:11;;;;;;;0.10;0.10;;;;;;;4.79;64.43;100790.13;4982873;28;20070;-61
2022/10/17 02:54:42;;;;;;;0.10;0.10;;;;;;;4.80;64.45;100786.38;4982857;28;20050;-62
2022/10/17 02:57:12;;;;;;;0.10;0.10;;;;;;;4.82;64.32;100808.66;4982559;28;20141;-62
2022/10/17 02:59:40;;;;;;;0.10;0.10;;;;;;;4.81;64.40;100782.63;4984703;28;20565;-63
2022/10/17 03:02:06;;;;;;;;;;;;;;;4.80;64.21;100789.94;4999307;28;20054;-63
2022/10/17 03:04:34;;;;;;;0.10;0.10;;;;;;;4.77;64.51;100806.63;4998321;28;19926;-63
2022/10/17 03:07:00;;;;;;;0.10;0.10;;;;;;;4.80;64.06;100778.25;4966671;28;20089;-63
2022/10/17 03:09:26;;;;;;;0.10;0.10;;;;;;;4.79;64.41;100793.69;4984710;28;20072;-62
2022/10/17 03:11:52;;;;;;;0.10;0.10;;;;;;;4.80;64.36;100781.81;4982527;28;20164;-63
2022/10/17 03:14:18;;;;;;;0.10;0.10;;;;;;;4.81;64.38;100780.75;4983050;28;20458;-63
2022/10/17 03:16:44;;;;;;;0.10;0.10;;;;;;;4.82;64.54;100774.28;4982371;28;20445;-62
2022/10/17 03:19:10;;;;;;;0.13;0.10;;;;;;;4.82;64.34;100778.84;4982213;28;20054;-67
2022/10/17 03:21:37;;;;;;;0.10;0.10;;;;;;;4.82;64.35;100782.41;4976862;28;20044;-63
2022/10/17 03:24:06;;;;;;;0.10;0.10;;;;;;;4.80;64.53;100762.84;5006543;28;20054;-62
2022/10/17 03:26:32;;;;;;;0.10;0.10;;;;;;;4.74;64.52;100770.97;5009933;28;20042;-63
2022/10/17 03:28:58;;;;;;;0.10;0.10;;;;;;;4.75;64.91;100762.63;5007261;28;20065;-63
2022/10/17 03:31:25;;;;;;;0.10;0.10;;;;;;;4.73;64.82;100747.63;4985574;28;20053;-62
2022/10/17 03:33:52;;;;;;;0.10;0.10;;;;;;;4.68;64.98;100749.13;4984661;28;20449;-62
2022/10/17 03:36:18;;;;;;;0.08;0.08;;;;;;;4.64;64.91;100742.44;4985359;28;20050;-63
2022/10/17 03:38:47;;;;;;;0.10;0.10;;;;;;;4.61;64.96;100726.59;4968881;28;20543;-64
2022/10/17 03:41:15;;;;;;;0.10;0.10;;;;;;;4.68;64.73;100721.16;5001387;28;20431;-62
2022/10/17 03:43:41;;;;;;;0.10;0.10;;;;;;;4.68;65.10;100732.84;4987195;28;20053;-60
2022/10/17 03:46:08;;;;;;;0.10;0.10;;;;;;;4.68;65.01;100719.31;5004291;28;20072;-62
2022/10/17 03:48:35;;;;;;;0.10;0.10;;;;;;;4.70;64.75;100731.81;4987569;28;20056;-63
2022/10/17 03:51:03;;;;;;;0.32;0.10;;;;;;;4.70;64.51;100716.38;4980287;28;20046;-62
2022/10/17 03:53:31;;;;;;;0.10;0.10;;;;;;;4.68;65.02;100715.75;4986654;28;20073;-63
2022/10/17 03:56:08;;;;;;;0.10;0.10;;;;;;;4.66;65.13;100724.09;4968178;28;20399;-62
2022/10/17 03:58:34;;;;;;;;;;;;;;;4.67;65.02;100705.97;4986393;28;20068;-62
2022/10/17 04:01:03;;;;;;;0.10;0.10;;;;;;;4.65;64.94;100717.00;4986207;28;19934;-63
2022/10/17 04:03:29;;;;;;;0.10;0.10;;;;;;;4.68;65.16;100724.72;4987882;28;20113;-61
2022/10/17 04:05:57;;;;;;;0.10;0.10;;;;;;;4.69;65.06;100714.72;4969383;28;20058;-63
2022/10/17 04:08:23;;;;;;;0.10;0.10;;;;;;;4.73;65.47;100724.06;4987157;28;20046;-64
2022/10/17 04:11:07;;;;;;;0.10;0.10;;;;;;;4.75;65.00;100707.59;4979585;28;20128;-64
2022/10/17 04:13:33;;;;;;;0.10;0.10;;;;;;;4.77;64.76;100721.78;4986716;28;20056;-64
2022/10/17 04:16:03;;;;;;;0.10;0.10;;;;;;;4.81;64.72;100710.28;4999434;28;20045;-60
2022/10/17 04:18:31;;;;;;;0.13;0.13;;;;;;;4.85;64.60;100713.41;5005618;28;20046;-63
2022/10/17 04:20:57;;;;;;;0.10;0.10;;;;;;;4.87;64.46;100707.75;5021439;28;20057;-62
2022/10/17 04:23:25;;;;;;;0.10;0.10;;;;;;;4.85;64.65;100699.03;5008020;28;20182;-64
2022/10/17 04:25:55;;;;;;;0.10;0.10;;;;;;;4.86;64.58;100725.91;5005228;28;20073;-63
2022/10/17 04:28:23;;;;;;;0.10;0.10;;;;;;;4.90;64.63;100716.31;5008360;28;20525;-61
2022/10/17 04:30:55;;;;;;;0.10;0.10;;;;;;;4.92;64.31;100713.41;4988869;28;20085;-62
2022/10/17 04:33:21;;;;;;;0.10;0.10;;;;;;;4.90;64.41;100697.34;5003134;28;20109;-63
2022/10/17 04:35:54;;;;;;;0.10;0.10;;;;;;;4.89;64.31;100692.13;5001718;28;20149;-64
2022/10/17 04:38:20;;;;;;;0.10;0.10;;;;;;;4.90;64.35;100674.81;4669179;28;9999850;-63
2022/10/17 04:40:46;;;;;;;0.13;0.13;;;;;;;4.93;64.29;100680.63;4994715;28;20069;-64
2022/10/17 04:43:12;;;;;;;0.20;0.13;;;;;;;4.95;64.04;100670.41;5004465;28;20050;-61
2022/10/17 04:45:40;;;;;;;0.52;0.17;;;;;;;4.99;64.33;100676.22;5007426;28;20540;-63
2022/10/17 04:48:06;;;;;;;0.10;0.10;;;;;;;5.02;64.21;100680.41;5005297;28;20046;-62
2022/10/17 04:50:33;;;;;;;0.10;0.10;;;;;;;5.07;64.17;100662.44;5003154;28;20116;-62
2022/10/17 04:53:30;;;;;;;0.10;0.10;;;;;;;5.11;63.70;100673.66;5021760;28;20050;-63
2022/10/17 04:55:56;;;;;;;0.43;0.15;;;;;;;5.15;63.75;100687.63;5003822;28;20494;-64
2022/10/17 04:58:23;;;;;;;0.17;0.10;;;;;;;5.19;63.68;100675.28;5003378;28;20046;-64
2022/10/17 05:00:52;;;;;;;0.10;0.10;;;;;;;5.23;63.62;100671.13;4998441;28;20140;-65
2022/10/17 05:03:21;;;;;;;0.20;0.10;;;;;;;5.25;63.29;100666.31;4994492;28;20584;-65
2022/10/17 05:05:47;;;;;;;0.20;0.20;;;;;;;5.28;63.35;100662.31;4998946;28;20046;-64
2022/10/17 05:08:13;;;;;;;0.10;0.10;;;;;;;5.34;63.25;100661.44;4986098;28;20445;-64
2022/10/17 05:10:41;;;;;;;0.10;0.10;;;;;;;5.34;63.02;100647.88;4994743;28;20049;-64
2022/10/17 05:13:08;;;;;;;;;;;;;;;5.37;63.25;100652.88;5002445;28;20108;-64
2022/10/17 05:15:35;;;;;;;0.20;0.20;;;;;;;5.38;63.00;100654.53;5001736;28;19960;-63
2022/10/17 05:18:04;;;;;;;0.10;0.10;;;;;;;5.42;63.16;100653.03;5003877;28;20046;-63
2022/10/17 05:20:30;;;;;;;0.30;0.20;;;;;;;5.47;63.20;100649.66;5004257;28;20052;-63
2022/10/17 05:22:58;;;;;;;0.10;0.10;;;;;;;5.51;62.93;100642.72;5005440;28;20056;-63
2022/10/17 05:25:28;;;;;;;0.10;0.10;;;;;;;5.53;62.79;100681.31;4978920;28;20483;-64
2022/10/17 05:27:54;;;;;;;0.25;0.10;;;;;;;5.52;62.97;100661.53;4962938;28;20437;-63
2022/10/17 05:30:20;;;;;;;0.20;0.20;;;;;;;5.54;63.05;100647.72;4992938;28;20049;-64
2022/10/17 05:32:52;;;;;;;0.10;0.10;;;;;;;5.61;62.56;100639.53;4995184;28;20057;-63
2022/10/17 05:35:19;;;;;;;0.10;0.10;;;;;;;5.62;62.37;100641.19;4996180;28;20058;-62
2022/10/17 05:37:46;;;;;;;0.10;0.10;;;;;;;5.63;62.19;100629.31;4997537;28;20080;-63
2022/10/17 05:40:12;;;;;;;0.22;0.10;;;;;;;5.48;62.20;100606.06;4998429;28;20074;-64
2022/10/17 05:42:44;;;;;;;0.17;0.17;;;;;;;5.66;62.26;100629.69;5005062;28;20050;-65
2022/10/17 05:45:10;;;;;;;0.10;0.10;;;;;;;5.75;61.88;100660.06;5005230;28;20058;-63
2022/10/17 05:47:36;;;;;;;0.55;0.22;;;;;;;5.79;61.64;100647.75;5005495;28;20057;-65
2022/10/17 05:50:03;;;;;;;0.15;0.15;;;;;;;5.83;61.59;100631.81;5003876;28;20076;-64
2022/10/17 05:52:44;;;;;;;0.75;0.30;;;;;;;5.92;61.54;100638.66;5000561;28;20046;-64
2022/10/17 05:55:14;;;;;;;0.20;0.20;;;;;;;6.02;61.34;100630.00;5010835;28;20270;-65
2022/10/17 05:57:40;;;;;;;0.10;0.10;;;;;;;6.08;60.91;100628.28;4988297;28;20042;-65
2022/10/17 06:00:12;;;;;;;0.10;0.10;;;;;;;6.14;60.56;100621.94;4983677;28;20107;-64
2022/10/17 06:02:41;;;;;;;0.13;0.10;;;;;;;6.16;60.75;100602.72;5005351;28;20046;-65
2022/10/17 06:05:08;;;;;;;;;;;;;;;6.23;60.29;100603.47;5020417;28;20525;-65
2022/10/17 06:07:35;;;;;;;0.47;0.20;;;;;;;6.26;60.20;100599.47;4992328;28;19929;-65
2022/10/17 06:10:03;;;;;;;1.30;0.20;;;;;;;6.28;59.94;100608.22;5005141;28;20046;-64
2022/10/17 06:12:29;;;;;;;0.10;0.10;;;;;;;6.24;60.01;100608.69;5005805;28;20049;-65
2022/10/17 06:14:55;;;;;;;0.10;0.10;;;;;;;6.24;60.18;100608.69;4998726;28;20433;-62
2022/10/17 06:17:21;;;;;;;0.10;0.10;;;;;;;6.22;60.15;100618.09;5006801;28;20046;-65
2022/10/17 06:19:47;;;;;;;1.35;0.30;;;;;;;6.20;60.44;100601.22;5006633;28;20045;-65
2022/10/17 06:22:16;;;;;;;0.15;0.15;;;;;;;6.10;60.46;100577.31;5005517;28;20320;-65
2022/10/17 06:24:45;;;;;;;0.25;0.20;;;;;;;6.24;60.55;100592.41;4989031;28;20054;-63
2022/10/17 06:27:13;;;;;;;0.20;0.20;;;;;;;6.27;60.28;100591.13;5007612;28;20433;-63
2022/10/17 06:29:40;;;;;;;0.20;0.20;;;;;;;6.32;60.26;100579.56;4975165;28;20348;-63
2022/10/17 06:32:06;;;;;;;0.10;0.10;;;;;;;6.39;60.14;100583.03;4997987;28;20046;-62
2022/10/17 06:34:32;;;;;;;0.10;0.10;;;;;;;6.44;59.89;100593.22;4983504;28;20090;-63
2022/10/17 06:36:59;;;;;;;0.45;0.20;;;;;;;6.48;59.77;100610.72;4985565;28;20161;-63
2022/10/17 06:39:32;;;;;;;;;;;;;;;6.48;59.85;100597.13;4985402;28;20113;-62
2022/10/17 06:42:05;;;;;;;0.17;0.17;;;;;;;6.46;59.76;100585.66;4986193;28;19934;-63
2022/10/17 06:44:46;;;;;;;0.47;0.13;;;;;;;6.52;60.00;100599.16;4984131;28;20113;-62
2022/10/17 06:47:22;;;;;;;0.10;0.10;;;;;;;6.57;59.37;100595.78;4984394;28;20053;-63
2022/10/17 06:49:50;;;;;;;0.20;0.20;;;;;;;6.59;59.56;100585.50;5003477;28;20042;-64
2022/10/17 06:52:28;;;;;;;0.65;0.10;;;;;;;6.65;59.46;100581.03;4985245;28;20061;-63
2022/10/17 06:55:13;;;;;;;0.10;0.10;;;;;;;6.69;59.39;100562.38;4989080;28;20070;-62
2022/10/17 06:57:47;;;;;;;0.10;0.10;;;;;;;6.77;58.97;100548.47;5003014;28;20045;-62
2022/10/17 07:00:46;;;;;;;0.20;0.20;;;;;;;6.86;58.59;100544.34;4999587;28;20046;-63
2022/10/17 07:03:13;;;;;;;0.60;0.20;;;;;;;7.00;58.21;100545.00;5011643;28;20145;-63
2022/10/17 07:05:39;;;;;;;0.30;0.20;;;;;;;7.16;57.88;100545.38;4994879;28;20593;-63
2022/10/17 07:08:05;;;;;;;0.20;0.20;;;;;;;7.22;57.51;100563.47;5003996;28;20064;-64
2022/10/17 07:10:36;;;;;;;0.10;0.10;;;;;;;7.31;57.36;100561.25;5007743;28;20049;-65
2022/10/17 07:13:04;;;;;;;0.25;0.20;;;;;;;7.42;57.32;100560.44;4987010;28;20054;-64
2022/10/17 07:15:32;;;;;;;0.20;0.20;;;;;;;7.50;56.96;100551.94;5000246;28;20381;-65
2022/10/17 07:18:00;;;;;;;0.20;0.20;;;;;;;7.59;56.81;100552.41;5009600;28;20046;-64
2022/10/17 07:20:27;;;;;;;0.35;0.20;;;;;;;7.61;56.71;100547.56;5006349;28;20069;-63
2022/10/17 07:22:53;;;;;;;0.43;0.20;;;;;;;7.68;56.62;100562.94;5008097;28;20054;-64
2022/10/17 07:25:19;;;;;;;1.02;0.30;;;;;;;7.69;56.42;100545.53;5004602;28;20056;-65
2022/10/17 07:27:55;;;;;;;0.10;0.10;;;;;;;7.61;56.44;100544.84;5009223;28;20068;-64
2022/10/17 07:30:22;;;;;;;0.22;0.22;;;;;;;7.56;56.85;100538.44;5008504;28;20077;-64
2022/10/17 07:33:10;;;;;;;0.10;0.10;;;;;;;7.50;56.98;100538.31;5009730;28;20517;-63
2022/10/17 07:35:36;;;;;;;;;;;;;;;7.48;56.98;100536.91;5009957;28;20050;-64
2022/10/17 07:38:03;;;;;;;0.20;0.20;;;;;;;7.45;57.15;100529.22;4996805;28;19926;-63
2022/10/17 07:40:29;;;;;;;0.15;0.15;;;;;;;7.40;57.40;100539.94;4985736;28;20419;-62
2022/10/17 07:42:55;;;;;;;0.10;0.10;;;;;;;7.38;57.76;100524.69;4993027;28;20050;-62
2022/10/17 07:45:22;;;;;;;0.20;0.20;;;;;;;7.34;57.96;100519.97;4992202;28;20420;-63
2022/10/17 07:47:48;;;;;;;0.10;0.10;;;;;;;7.33;57.90;100523.75;4990595;28;20062;-63
2022/10/17 07:50:17;;;;;;;0.10;0.10;;;;;;;7.29;58.05;100534.28;5001931;28;20050;-62
2022/10/17 07:52:42;;;;;;;;;;;;;;;7.28;58.25;100540.78;4995262;28;20046;-63
2022/10/17 07:55:09;;;;;;;0.10;0.10;;;;;;;7.24;58.30;100532.25;5004308;28;19940;-63
2022/10/17 07:57:35;;;;;;;0.10;0.10;;;;;;;7.22;58.36;100542.56;4992837;28;20049;-65
2022/10/17 08:00:01;;;;;;;0.10;0.10;;;;;;;7.19;58.67;100525.88;5008837;28;20049;-65
2022/10/17 08:02:29;;;;;;;0.10;0.10;;;;;;;7.23;58.87;100535.22;5007969;28;20050;-63
2022/10/17 08:04:55;;;;;;;0.25;0.13;;;;;;;7.19;58.73;100524.00;5005418;28;20084;-64
2022/10/17 08:07:23;;;;;;;0.15;0.15;;;;;;;7.23;59.06;100527.88;4988756;28;20105;-65
2022/10/17 08:09:49;;;;;;;0.10;0.10;;;;;;;7.24;59.97;100531.41;4990491;28;20054;-64
2022/10/17 08:12:15;;;;;;;0.10;0.10;;;;;;;7.21;60.70;100530.03;4997684;28;20464;-65
2022/10/17 08:14:41;;;;;;;0.30;0.10;;;;;;;7.17;62.19;100520.66;4990821;28;20057;-64
2022/10/17 08:17:08;;;;;;;0.10;0.10;;;;;;;7.15;65.92;100516.53;4988233;28;20060;-64
2022/10/17 08:19:36;;;;;;;0.20;0.20;;;;;;;6.83;68.29;100514.91;4995309;28;20042;-64
2022/10/17 08:22:02;;;;;;;0.10;0.10;;;;;;;6.49;69.29;100509.13;4999065;28;20165;-64
2022/10/17 08:24:29;;;;;;;0.10;0.10;;;;;;;6.31;69.61;100497.25;4999647;28;20056;-62
2022/10/17 08:26:57;;;;;;;0.10;0.10;;;;;;;6.32;68.54;100498.91;4988681;28;20104;-64
2022/10/17 08:29:23;;;;;;;0.22;0.10;;;;;;;6.38;67.42;100502.59;5006706;28;20046;-64
2022/10/17 08:31:49;;;;;;;0.10;0.10;;;;;;;6.52;66.37;100503.22;5001257;28;20058;-63
2022/10/17 08:34:15;;;;;;;0.45;0.20;;;;;;;6.67;64.83;100494.69;5002970;28;20050;-64
2022/10/17 08:36:41;;;;;;;0.10;0.10;;;;;;;6.75;65.08;100497.03;5008612;28;20137;-65
2022/10/17 08:39:07;;;;;;;0.10;0.10;;;;;;;6.81;64.38;100498.84;5005986;28;20076;-62
2022/10/17 08:41:50;;;;;;;0.10;0.10;;;;;;;6.89;64.30;100511.28;5009767;28;20038;-64
2022/10/17 08:44:28;;;;;;;0.25;0.10;;;;;;;6.92;64.36;100505.38;5008308;28;20049;-63
2022/10/17 08:46:58;;;;;;;0.47;0.20;;;;;;;6.98;64.51;100506.34;5005338;28;20057;-65
2022/10/17 08:49:40;;;;;;;0.10;0.10;;;;;;;7.03;64.29;100502.91;5005099;28;20045;-63
2022/10/17 08:52:14;;;;;;;0.10;0.10;;;;;;;7.02;64.53;100504.78;4995557;28;20532;-64
2022/10/17 08:54:43;;;;;;;0.20;0.20;;;;;;;7.06;64.37;100510.59;4987931;28;20038;-64
2022/10/17 08:57:14;;;;;;;0.20;0.20;;;;;;;7.07;64.34;100509.53;4994178;28;20045;-63
2022/10/17 08:59:41;;;;;;;0.10;0.10;;;;;;;7.09;63.95;100497.34;5004659;28;20050;-64
2022/10/17 09:02:21;;;;;;;0.10;0.10;;;;;;;7.13;63.85;100502.34;5005033;28;20077;-64
2022/10/17 09:05:06;;;;;;;0.10;0.10;;;;;;;7.14;64.16;100509.44;4998049;28;20054;-63
2022/10/17 09:07:38;;;;;;;0.13;0.13;;;;;;;7.09;64.60;100535.41;5000178;28;20034;-63
2022/10/17 09:10:14;;;;;;;0.10;0.10;;;;;;;7.05;65.41;100531.50;4991521;28;20046;-62
2022/10/17 09:12:54;;;;;;;0.13;0.13;;;;;;;7.03;66.46;100584.50;4999633;28;20112;-63
2022/10/17 09:15:36;;;;;;;0.10;0.10;;;;;;;6.87;70.73;100518.84;5005352;28;20108;-62
2022/10/17 09:18:10;;;;;;;0.10;0.10;;;;;;;6.53;73.97;100513.88;4994132;28;20117;-63
2022/10/17 09:20:41;;;;;;;0.10;0.10;;;;;;;6.15;77.94;100546.75;4988850;28;20126;-63
2022/10/17 09:23:14;;;;;;;1.10;0.20;;;;;;;5.79;81.03;100509.34;4987383;28;20054;-64
2022/10/17 09:25:44;;;;;;;0.10;0.10;;;;;;;5.55;84.18;100502.91;4990742;28;20062;-65
2022/10/17 09:28:16;;;;;;;0.25;0.15;;;;;;;5.42;86.16;100500.31;4991584;28;20050;-65
2022/10/17 09:30:45;;;;;;;0.10;0.10;;;;;;;5.22;87.53;100499.44;4986419;28;20522;-65
2022/10/17 09:33:12;;;;;;;0.50;0.35;;;;;;;5.23;89.43;100511.94;4986114;28;20054;-65
2022/10/17 09:35:41;;;;;;;0.32;0.20;;;;;;;5.21;90.45;100515.94;4989075;28;20050;-65
2022/10/17 09:38:14;;;;;;;0.10;0.10;;;;;;;5.10;91.04;100503.91;4987562;28;20054;-65
2022/10/17 09:40:40;;;;;;;0.20;0.10;;;;;;;5.07;92.57;100521.47;5004282;28;20160;-65
2022/10/17 09:43:09;;;;;;;0.10;0.10;;;;;;;5.06;92.49;100511.66;5005065;28;20081;-65
2022/10/17 09:45:45;;;;;;;0.10;0.10;;;;;;;5.07;92.67;100501.66;5006239;28;20076;-65
2022/10/17 09:48:21;;;;;;;0.00;0.00;;;;;;;5.09;93.18;100491.41;5005169;28;20429;-65
2022/10/17 09:50:48;;;;;;;0.10;0.10;;;;;;;5.17;93.58;100485.72;4996379;28;20046;-65
2022/10/17 09:53:21;;;;;;;0.20;0.20;;;;;;;5.21;93.48;100461.69;4992657;28;20051;-66
2022/10/17 09:55:50;;;;;;;0.10;0.10;;;;;;;5.29;93.09;100474.97;5000709;28;20046;-67
2022/10/17 09:58:16;;;;;;;0.10;0.10;;;;;;;5.24;92.88;100493.81;5004656;28;20081;-67
2022/10/17 10:00:46;;;;;;;0.10;0.10;;;;;;;5.25;92.78;100480.00;5005829;28;20046;-67
2022/10/17 10:03:17;;;;;;;0.15;0.15;;;;;;;5.30;93.08;100465.78;5005459;28;20145;-67
2022/10/17 10:05:58;;;;;;;0.10;0.10;;;;;;;5.34;92.72;100450.72;4988282;28;20528;-66
2022/10/17 10:08:27;;;;;;;0.10;0.10;;;;;;;5.33;92.01;100451.78;5000010;28;20145;-66
2022/10/17 10:10:57;;;;;;;0.17;0.17;;;;;;;5.34;90.90;100455.34;4990405;28;20058;-65
2022/10/17 10:13:26;;;;;;;0.30;0.20;;;;;;;5.44;90.67;100454.81;5000389;28;20140;-66
2022/10/17 10:16:11;;;;;;;0.20;0.20;;;;;;;5.48;89.27;100451.44;4988105;28;20113;-65
2022/10/17 10:18:37;;;;;;;0.10;0.10;;;;;;;5.52;88.70;100447.22;5005506;28;20041;-67
2022/10/17 10:21:06;;;;;;;0.10;0.10;;;;;;;5.57;88.43;100430.25;4973091;28;20042;-67
2022/10/17 10:23:33;;;;;;;0.10;0.10;;;;;;;5.61;87.50;100438.75;4989278;28;20245;-66
2022/10/17 10:26:04;;;;;;;0.10;0.10;;;;;;;5.59;87.02;100439.00;5002283;28;20058;-66
2022/10/17 10:28:32;;;;;;;0.15;0.15;;;;;;;5.62;86.73;100435.81;4986202;28;20053;-66
2022/10/17 10:31:03;;;;;;;0.20;0.20;;;;;;;5.67;85.74;100429.72;4993688;28;20049;-66
2022/10/17 10:33:32;;;;;;;0.10;0.10;;;;;;;5.62;85.70;100419.56;5006184;28;20108;-66
2022/10/17 10:36:00;;;;;;;0.10;0.10;;;;;;;5.64;85.81;100422.84;5006353;28;20049;-66
2022/10/17 10:38:27;;;;;;;0.10;0.10;;;;;;;5.63;85.81;100393.25;5006646;28;20063;-66
2022/10/17 10:40:55;;;;;;;0.10;0.10;;;;;;;5.78;85.30;100418.13;5002904;28;20061;-66
2022/10/17 10:43:32;;;;;;;0.15;0.10;;;;;;;5.81;85.68;100408.69;4982243;28;20046;-66
2022/10/17 10:46:01;;;;;;;0.10;0.10;;;;;;;5.85;85.35;100414.47;4986119;28;20073;-66
2022/10/17 10:48:31;;;;;;;0.20;0.20;;;;;;;5.91;85.22;100413.56;4984494;28;20581;-66
2022/10/17 10:50:59;;;;;;;0.20;0.20;;;;;;;5.96;84.85;100416.44;4988613;28;20521;-66
2022/10/17 10:53:35;;;;;;;0.10;0.10;;;;;;;5.99;84.19;100415.97;4985273;28;20046;-66
2022/10/17 10:56:09;;;;;;;0.10;0.10;;;;;;;5.99;84.59;100420.56;4969103;28;20501;-65
2022/10/17 10:58:52;;;;;;;0.10;0.10;;;;;;;5.95;84.64;100406.63;4984963;28;20147;-65
2022/10/17 11:01:28;;;;;;;0.10;0.10;;;;;;;6.06;84.38;100413.19;4968512;28;20054;-66
2022/10/17 11:04:05;;;;;;;0.20;0.20;;;;;;;6.15;84.08;100405.56;4989342;28;20066;-65
2022/10/17 11:06:35;;;;;;;0.10;0.10;;;;;;;6.19;83.54;100399.44;4991255;28;20050;-65
2022/10/17 11:09:14;;;;;;;0.10;0.10;;;;;;;6.20;83.50;100389.41;5002171;28;20046;-65
2022/10/17 11:11:46;;;;;;;0.10;0.10;;;;;;;6.21;83.54;100391.88;5003209;28;20054;-64
2022/10/17 11:14:18;;;;;;;0.10;0.10;;;;;;;6.20;83.53;100373.09;5002439;28;20053;-64
2022/10/17 11:16:54;;;;;;;0.10;0.10;;;;;;;6.25;83.43;100389.53;4999683;28;20540;-65
2022/10/17 11:19:26;;;;;;;0.10;0.10;;;;;;;6.24;83.28;100383.28;5006058;28;20042;-64
2022/10/17 11:22:03;;;;;;;0.10;0.10;;;;;;;6.25;83.57;100394.97;4986743;28;20064;-64
2022/10/17 11:24:36;;;;;;;0.10;0.10;;;;;;;6.29;83.25;100393.44;4984567;28;20467;-64
2022/10/17 11:27:05;;;;;;;0.10;0.10;;;;;;;6.28;83.69;100380.94;4970275;28;20053;-65
2022/10/17 11:29:34;;;;;;;0.10;0.10;;;;;;;6.32;83.52;100401.13;4986020;28;20050;-64
2022/10/17 11:32:06;;;;;;;0.10;0.10;;;;;;;6.32;83.59;100384.84;4986003;28;20048;-65
2022/10/17 11:34:39;;;;;;;0.10;0.10;;;;;;;6.37;83.17;100390.38;4989845;28;20469;-64
2022/10/17 11:37:13;;;;;;;0.10;0.10;;;;;;;6.30;83.73;100375.25;5001814;28;20132;-64
2022/10/17 11:39:47;;;;;;;0.43;0.30;;;;;;;6.31;83.95;100368.75;4997758;28;20129;-64
2022/10/17 11:42:19;;;;;;;0.10;0.10;;;;;;;6.33;84.34;100369.38;4994858;28;20192;-64
2022/10/17 11:44:49;;;;;;;0.10;0.10;;;;;;;6.41;84.25;100385.31;4986600;28;20553;-64
2022/10/17 11:47:29;;;;;;;0.10;0.10;;;;;;;6.46;84.17;100400.94;5009095;28;20041;-64
2022/10/17 11:50:01;;;;;;;0.10;0.10;;;;;;;6.39;84.34;100374.69;5006349;28;20042;-64
2022/10/17 11:52:36;;;;;;;0.47;0.30;;;;;;;6.41;84.78;100368.22;5008539;28;20494;-66